Nearby METAR Reports

KLNK - Lincoln, Nebraska, USA
Distance from station: WNW 8mi, 13km
Updated: Wed, 08-Feb-2023 4:54am CST
Clear
Clear
 Wind from S
Wind: S 5 mph , 7 km/h
Temperature: 25°F , -4°C
Wind Chill: 19°F , -7°C
Dew Point: 21°F , -6°C
Humidity: 86%
Barometer: 30.20 inHg , 1022.7 hPa
Clouds: Clear
Visibility: 10 miles , 16 km
2023/02/08 10:54 KLNK 081054Z AUTO 17004KT 10SM CLR M04/M06 A3020 RMK AO2 SLP237 T10441061
KAHQ - Wahoo, Nebraska, USA
Distance from station: N 31mi, 49km
Updated: Wed, 08-Feb-2023 4:55am CST
Clear
Clear
 Wind from S
Wind: S 6 mph , 9 km/h
Temperature: 27°F , -3°C
Wind Chill: 20°F , -7°C
Dew Point: 27°F , -3°C
Humidity: 100%
Barometer: 30.18 inHg , 1022 hPa
Clouds: Clear
Visibility: 10 miles , 16 km
2023/02/08 10:55 KAHQ 081055Z AUTO 17005KT 10SM CLR M03/M03 A3018 RMK AO2 T10261032
 
KBIE - Beatrice Municip, Nebraska, USA
Distance from station: S 36mi, 57km
Updated: Wed, 08-Feb-2023 4:55am CST
Clear
Clear
 Wind from calm
Wind: Calm
Temperature: 25°F , -4°C
Dew Point: 23°F , -5°C
Humidity: 93%
Barometer: 30.20 inHg , 1022.7 hPa
Clouds: Clear
Visibility: 10 miles , 16 km
2023/02/08 10:55 KBIE 081055Z AUTO 00000KT 10SM CLR M04/M05 A3020 RMK AO2 T10401055
KMLE - Omaha/Millard, Nebraska, USA
Distance from station: NE 39mi, 63km
Updated: Wed, 08-Feb-2023 4:55am CST
Clear
Clear
 Wind from SE
Wind: SE 3 mph , 6 km/h
Temperature: 25°F , -4°C
Dew Point: 23°F , -5°C
Humidity: 93%
Barometer: 30.20 inHg , 1022.7 hPa
Clouds: Clear
Visibility: 10 miles , 16 km
2023/02/08 10:55 KMLE 081055Z AUTO 13003KT 10SM CLR M04/M05 A3020 RMK AO2 T10371055
 
KPMV - Plattsmouth Muni, Nebraska, USA
Distance from station: ENE 39mi, 63km
Updated: Wed, 08-Feb-2023 4:55am CST
Clear
Clear
 Wind from S
Wind: S 3 mph , 6 km/h
Temperature: 27°F , -3°C
Dew Point: 21°F , -6°C
Humidity: 80%
Barometer: 30.20 inHg , 1022.7 hPa
Clouds: Clear
Visibility: 10 miles , 16 km
2023/02/08 10:55 KPMV 081055Z AUTO 17003KT 10SM CLR M03/M06 A3020 RMK AO2 T10261061
KAFK - Nebraska City, Nebraska, USA
Distance from station: ESE 43mi, 69km
Updated: Wed, 08-Feb-2023 4:55am CST
Clear
Clear
 Wind from SSW
Wind: SSW 8 mph , 13 km/h
Temperature: 28°F , -2°C
Wind Chill: 20°F , -7°C
Dew Point: 21°F , -6°C
Humidity: 74%
Barometer: 30.21 inHg , 1023 hPa
Clouds: Clear
Visibility: 10 miles , 16 km
2023/02/08 10:55 KAFK 081055Z AUTO 21007KT 10SM CLR M02/M06 A3021 RMK AO2 T10241064
 
KOFF - Offutt Afb/Belle, Nebraska, USA
Distance from station: ENE 44mi, 70km
Updated: Wed, 08-Feb-2023 4:55am CST
Clear
Clear
 Wind from E
Wind: E 3 mph , 6 km/h
Temperature: 25°F , -4°C
Dew Point: 19°F , -7°C
Humidity: 80%
Barometer: 30.22 inHg , 1023.4 hPa
Clouds: Clear
Visibility: 9 miles , 14 km
2023/02/08 10:55 KOFF 081055Z AUTO 10003KT 9SM CLR M04/M07 A3022 RMK AO2 SLP248 T10401069 PWINO PNO FZRANO TSNO $
KFET - Fremont Muni Arp, Nebraska, USA
Distance from station: N 46mi, 74km
Updated: Wed, 08-Feb-2023 4:55am CST
Clear
Clear
 Wind from calm
Wind: Calm
Temperature: 27°F , -3°C
Dew Point: 25°F , -4°C
Humidity: 93%
Barometer: 30.17 inHg , 1021.7 hPa
Clouds: Clear
Visibility: 10 miles , 16 km
2023/02/08 10:55 KFET 081055Z AUTO 00000KT 10SM CLR M03/M04 A3017 RMK AO2 T10311042
 
KBTA - Blair Muni, Nebraska, USA
Distance from station: NNE 51mi, 82km
Updated: Wed, 08-Feb-2023 4:55am CST
Clear
Clear
 Wind from SSE
Wind: SSE 6 mph , 9 km/h
Temperature: 30°F , -1°C
Wind Chill: 24°F , -4°C
Dew Point: 25°F , -4°C
Humidity: 80%
Barometer: 30.17 inHg , 1021.7 hPa
Clouds: Clear
Visibility: 10 miles , 16 km
2023/02/08 10:55 KBTA 081055Z AUTO 16005KT 10SM CLR M01/M04 A3017 RMK AO2 T10151036
KJYR - York, Nebraska, USA
Distance from station: W 52mi, 84km
Updated: Wed, 08-Feb-2023 4:55am CST

 Wind from SSW
Wind: SSW 7 mph , 11 km/h
Temperature: 27°F , -3°C
Wind Chill: 19°F , -7°C
Dew Point: 25°F , -4°C
Humidity: 93%
Barometer: 30.16 inHg , 1021.3 hPa
Visibility: 10 miles , 16 km
2023/02/08 10:55 KJYR 081055Z AUTO 20006KT 10SM M03/M04 A3016 RMK AO2
 
KOMA - Omaha/Eppley, Nebraska, USA
Distance from station: NE 53mi, 85km
Updated: Wed, 08-Feb-2023 4:52am CST
Clear
Clear
 Wind from SSE
Wind: SSE 10 mph , 17 km/h
Temperature: 25°F , -4°C
Wind Chill: 15°F , -9°C
Dew Point: 19°F , -7°C
Humidity: 80%
Barometer: 30.19 inHg , 1022.4 hPa
Clouds: Clear
Visibility: 10 miles , 16 km
2023/02/08 10:52 KOMA 081052Z 15009KT 10SM CLR M04/M07 A3019 RMK AO2 SLP233 T10391067
KOLU - Columbus Muni, Nebraska, USA
Distance from station: NW 58mi, 93km
Updated: Wed, 08-Feb-2023 4:56am CST
Clear
Clear
 Wind from S
Wind: S 5 mph , 7 km/h
Temperature: 25°F , -4°C
Wind Chill: 19°F , -7°C
Dew Point: 25°F , -4°C
Humidity: 100%
Barometer: 30.17 inHg , 1021.7 hPa
Clouds: Clear
Visibility: 10 miles , 16 km
2023/02/08 10:56 KOLU 081056Z AUTO 19004KT 10SM CLR M04/M04 A3017 RMK AO2 SLP230 T10391039 FZRANO